Time;durP1;ratioP1;P1;durP2;ratioP2;P2;SDS_P1;SDS_P2;PMS_P1;PMS_P2;Temp;Humidity;BMP_temperature;BMP_pressure;BME280_temperature;BME280_humidity;BME280_pressure;Samples;Min_cycle;Max_cycle;Signal;HPM_P1;HPM_P2
2022/03/05 00:00:52;;;;;;;14.57;8.03;;;3.00;99.90;;;;;;5019897;28;20205;-57
2022/03/05 00:03:20;;;;;;;19.27;9.17;;;3.10;99.90;;;;;;5026041;28;20675;-58
2022/03/05 00:05:46;;;;;;;20.60;8.97;;;3.00;99.90;;;;;;5022942;28;20564;-56
2022/03/05 00:08:13;;;;;;;17.43;8.20;;;3.00;99.90;;;;;;5021498;28;20243;-57
2022/03/05 00:10:40;;;;;;;17.83;9.53;;;2.90;99.90;;;;;;5023812;28;20297;-56
2022/03/05 00:13:08;;;;;;;21.53;10.07;;;3.00;99.90;;;;;;5032502;28;20240;-57
2022/03/05 00:15:35;;;;;;;20.13;10.53;;;2.90;99.90;;;;;;5033606;28;20215;-57
2022/03/05 00:18:01;;;;;;;22.77;10.33;;;2.80;99.90;;;;;;5033485;28;20259;-56
2022/03/05 00:20:28;;;;;;;22.43;10.63;;;2.70;99.90;;;;;;5033566;28;20208;-56
2022/03/05 00:22:55;;;;;;;23.93;11.27;;;2.60;99.90;;;;;;5028208;28;20760;-56
2022/03/05 00:25:24;;;;;;;21.90;10.47;;;2.60;99.90;;;;;;5032426;28;20282;-56
2022/03/05 00:27:53;;;;;;;18.20;10.00;;;2.60;99.90;;;;;;5026561;28;20680;-56
2022/03/05 00:30:21;;;;;;;25.23;11.47;;;2.50;99.90;;;;;;5028027;28;20201;-58
2022/03/05 00:32:48;;;;;;;24.13;12.00;;;2.50;99.90;;;;;;5027708;28;20845;-56
2022/03/05 00:35:16;;;;;;;24.93;10.90;;;2.40;99.90;;;;;;5034248;28;20286;-56
2022/03/05 00:37:43;;;;;;;21.33;10.67;;;2.40;99.90;;;;;;5027627;28;20294;-56
2022/03/05 00:40:11;;;;;;;24.57;11.23;;;2.50;99.90;;;;;;5029856;28;20251;-57
2022/03/05 00:42:38;;;;;;;22.23;11.10;;;2.50;99.90;;;;;;5032916;28;20628;-56
2022/03/05 00:45:05;;;;;;;23.50;11.07;;;2.60;99.90;;;;;;5032793;28;20317;-57
2022/03/05 00:47:34;;;;;;;21.77;11.33;;;2.60;99.90;;;;;;5023769;28;20654;-57
2022/03/05 00:50:02;;;;;;;22.67;11.60;;;2.50;99.90;;;;;;5023998;28;20569;-56
2022/03/05 00:52:29;;;;;;;19.37;11.13;;;2.50;99.90;;;;;;5026877;28;20200;-55
2022/03/05 00:54:56;;;;;;;19.70;11.27;;;2.40;99.90;;;;;;5036262;28;20208;-57
2022/03/05 00:57:23;;;;;;;25.60;11.13;;;2.40;99.90;;;;;;5033088;28;20291;-57
2022/03/05 00:59:50;;;;;;;25.57;12.50;;;2.40;99.90;;;;;;5033018;28;20620;-56
2022/03/05 01:02:17;;;;;;;21.97;11.70;;;2.20;99.90;;;;;;5031777;28;20208;-57
2022/03/05 01:04:44;;;;;;;23.37;11.03;;;2.10;99.90;;;;;;5033485;28;20224;-57
2022/03/05 01:07:12;;;;;;;23.53;12.30;;;2.20;99.90;;;;;;5031740;28;20640;-57
2022/03/05 01:09:39;;;;;;;21.83;11.33;;;2.20;99.90;;;;;;5029474;28;20331;-56
2022/03/05 01:12:07;;;;;;;23.77;11.17;;;2.30;99.90;;;;;;5036082;28;20240;-57
2022/03/05 01:14:35;;;;;;;21.47;12.20;;;2.30;99.90;;;;;;5034902;28;20415;-57
2022/03/05 01:17:03;;;;;;;21.97;11.47;;;2.40;99.90;;;;;;5036161;28;20283;-61
2022/03/05 01:19:30;;;;;;;26.70;11.90;;;2.20;99.90;;;;;;5032072;28;20228;-55
2022/03/05 01:21:57;;;;;;;22.07;11.47;;;2.20;99.90;;;;;;5029679;28;20196;-56
2022/03/05 01:24:24;;;;;;;23.07;12.13;;;2.10;99.90;;;;;;5031629;28;20201;-56
2022/03/05 01:26:51;;;;;;;22.40;11.83;;;2.00;99.90;;;;;;5032224;28;20278;-56
2022/03/05 01:29:17;;;;;;;24.37;12.20;;;2.00;99.90;;;;;;5018521;28;20208;-57
2022/03/05 01:31:44;;;;;;;22.00;11.60;;;1.90;99.90;;;;;;5029338;28;20212;-57
2022/03/05 01:34:11;;;;;;;25.37;11.60;;;1.80;99.90;;;;;;5029200;28;20204;-57
2022/03/05 01:36:38;;;;;;;22.40;11.57;;;1.80;99.90;;;;;;5028053;28;21777;-57
2022/03/05 01:39:05;;;;;;;26.70;12.33;;;1.80;99.90;;;;;;5026516;28;20215;-57
2022/03/05 01:41:32;;;;;;;27.33;12.47;;;1.70;99.90;;;;;;5029739;28;20223;-56
2022/03/05 01:44:00;;;;;;;25.73;11.90;;;1.60;99.90;;;;;;5028430;28;20240;-56
2022/03/05 01:46:39;;;;;;;25.90;12.43;;;1.60;99.90;;;;;;5030333;28;20267;-56
2022/03/05 01:49:12;;;;;;;25.50;13.27;;;1.50;99.90;;;;;;5028008;28;20196;-56
2022/03/05 01:51:40;;;;;;;24.03;11.43;;;1.50;99.90;;;;;;5029173;28;20250;-58
2022/03/05 01:54:07;;;;;;;28.07;12.03;;;1.50;99.90;;;;;;5022841;28;20551;-56
2022/03/05 01:56:37;;;;;;;23.13;12.07;;;1.60;99.90;;;;;;5029425;28;20208;-57
2022/03/05 01:59:05;;;;;;;23.67;11.63;;;1.60;99.90;;;;;;5026324;28;20678;-57
2022/03/05 02:01:32;;;;;;;24.50;11.87;;;1.50;99.90;;;;;;5029453;28;20235;-57
2022/03/05 02:04:00;;;;;;;29.03;13.00;;;1.60;99.90;;;;;;5025751;28;20205;-57
2022/03/05 02:06:27;;;;;;;22.97;13.17;;;1.60;99.90;;;;;;5028918;28;20216;-61
2022/03/05 02:08:57;;;;;;;26.23;11.67;;;1.50;99.90;;;;;;5019093;28;20254;-56
2022/03/05 02:11:25;;;;;;;26.20;12.93;;;1.50;99.90;;;;;;5020685;28;20239;-56
2022/03/05 02:13:54;;;;;;;23.53;12.57;;;1.40;99.90;;;;;;5015902;28;20211;-56
2022/03/05 02:16:22;;;;;;;26.13;12.57;;;1.30;99.90;;;;;;5030132;28;20208;-56
2022/03/05 02:18:51;;;;;;;27.17;12.03;;;1.20;99.90;;;;;;5028395;28;20216;-57
2022/03/05 02:21:20;;;;;;;22.63;12.03;;;1.20;99.90;;;;;;5024807;28;20688;-56
2022/03/05 02:23:47;;;;;;;25.77;12.70;;;1.30;99.90;;;;;;5045495;28;20201;-56
2022/03/05 02:26:14;;;;;;;24.00;12.27;;;1.30;99.90;;;;;;5031763;28;20232;-56
2022/03/05 02:28:42;;;;;;;26.40;12.27;;;1.40;99.90;;;;;;5032250;28;20664;-56
2022/03/05 02:31:09;;;;;;;23.67;12.13;;;1.40;99.90;;;;;;5025603;28;20212;-55
2022/03/05 02:33:36;;;;;;;26.83;11.50;;;1.40;99.90;;;;;;5028682;28;20611;-55
2022/03/05 02:36:04;;;;;;;25.03;12.90;;;1.50;99.90;;;;;;5031313;28;20200;-55
2022/03/05 02:38:31;;;;;;;25.23;11.70;;;1.60;99.90;;;;;;5030937;28;20229;-56
2022/03/05 02:40:58;;;;;;;27.30;12.97;;;1.50;99.90;;;;;;5027319;28;20204;-56
2022/03/05 02:43:26;;;;;;;26.70;12.77;;;1.50;99.90;;;;;;5028137;28;20295;-57
2022/03/05 02:45:53;;;;;;;30.23;12.10;;;1.60;99.90;;;;;;5034759;28;20250;-56
2022/03/05 02:48:21;;;;;;;23.97;12.30;;;1.80;99.90;;;;;;5022462;28;20566;-56
2022/03/05 02:50:49;;;;;;;24.03;12.10;;;2.00;99.90;;;;;;5028621;28;20205;-56
2022/03/05 02:53:17;;;;;;;27.37;12.13;;;2.00;99.90;;;;;;5030959;28;20397;-55
2022/03/05 02:55:44;;;;;;;21.47;11.90;;;2.00;99.90;;;;;;5025473;28;20736;-55
2022/03/05 02:58:11;;;;;;;24.13;12.70;;;2.00;99.90;;;;;;5029134;28;20295;-56
2022/03/05 03:00:39;;;;;;;23.47;11.53;;;1.90;99.90;;;;;;5031910;28;20262;-55
2022/03/05 03:03:05;;;;;;;26.77;12.87;;;1.90;99.90;;;;;;5028084;28;20212;-56
2022/03/05 03:05:33;;;;;;;29.90;12.80;;;1.80;99.90;;;;;;5025681;28;20220;-56
2022/03/05 03:07:59;;;;;;;25.87;12.60;;;1.90;99.90;;;;;;5028119;28;20211;-56
2022/03/05 03:10:26;;;;;;;25.70;12.97;;;1.90;99.90;;;;;;5024685;28;20832;-56
2022/03/05 03:12:53;;;;;;;22.97;11.77;;;1.90;99.90;;;;;;5025214;28;20652;-56
2022/03/05 03:15:20;;;;;;;26.10;13.20;;;1.80;99.90;;;;;;5022500;28;20375;-56
2022/03/05 03:17:49;;;;;;;24.23;11.53;;;1.80;99.90;;;;;;5024544;28;20681;-55
2022/03/05 03:20:22;;;;;;;25.37;12.23;;;1.70;99.90;;;;;;5028728;28;20684;-56
2022/03/05 03:22:49;;;;;;;27.97;13.10;;;1.50;99.90;;;;;;5024889;28;20236;-56
2022/03/05 03:25:16;;;;;;;31.47;13.53;;;1.60;99.90;;;;;;5022032;28;20252;-56
2022/03/05 03:27:43;;;;;;;24.37;12.50;;;1.70;99.90;;;;;;5028431;28;20679;-56
2022/03/05 03:30:12;;;;;;;26.43;13.20;;;1.90;99.90;;;;;;5020393;28;20662;-57
2022/03/05 03:32:39;;;;;;;24.27;12.30;;;1.90;99.90;;;;;;5013029;28;20204;-56
2022/03/05 03:35:07;;;;;;;29.97;13.53;;;1.90;99.90;;;;;;5030650;28;20214;-56
2022/03/05 03:37:35;;;;;;;25.57;13.23;;;2.00;99.90;;;;;;5030068;28;20279;-56
2022/03/05 03:40:05;;;;;;;24.83;12.77;;;2.00;99.90;;;;;;5027886;28;20203;-55
2022/03/05 03:42:32;;;;;;;26.73;12.50;;;2.00;99.90;;;;;;5025782;28;20223;-57
2022/03/05 03:44:59;;;;;;;26.53;12.90;;;2.00;99.90;;;;;;5025615;28;20733;-57
2022/03/05 03:47:26;;;;;;;23.27;12.17;;;1.90;1.00;;;;;;5023599;28;20283;-55
2022/03/05 03:49:53;;;;;;;21.40;11.73;;;2.00;99.90;;;;;;5021997;28;20200;-57
2022/03/05 03:52:20;;;;;;;22.47;12.77;;;2.00;99.90;;;;;;5025479;28;20222;-56
2022/03/05 03:54:48;;;;;;;25.90;12.30;;;2.00;99.90;;;;;;5026722;28;20298;-57
2022/03/05 03:57:15;;;;;;;24.77;12.47;;;1.90;99.90;;;;;;5023558;28;20257;-56
2022/03/05 03:59:42;;;;;;;21.90;12.10;;;1.90;99.90;;;;;;5025314;28;20192;-56
2022/03/05 04:02:09;;;;;;;26.17;12.90;;;1.90;99.90;;;;;;5021371;28;20258;-57
2022/03/05 04:04:37;;;;;;;21.60;11.03;;;1.90;99.90;;;;;;5025996;28;21829;-56
2022/03/05 04:09:50;;;;;;;24.30;12.20;;;1.80;99.90;;;;;;5022208;28;20414;-56
2022/03/05 04:12:17;;;;;;;24.90;12.47;;;1.80;99.90;;;;;;5023251;28;20320;-56
2022/03/05 04:14:44;;;;;;;23.87;12.37;;;1.70;99.90;;;;;;5027023;28;20215;-57
2022/03/05 04:17:11;;;;;;;26.90;13.63;;;1.70;99.90;;;;;;5020916;28;20642;-57
2022/03/05 04:19:38;;;;;;;22.90;11.93;;;1.70;99.90;;;;;;5025941;28;20254;-57
2022/03/05 04:22:05;;;;;;;26.00;12.60;;;1.80;99.90;;;;;;5023854;28;20716;-57
2022/03/05 04:24:32;;;;;;;24.13;11.93;;;1.70;99.90;;;;;;5028489;28;20215;-57
2022/03/05 04:26:59;;;;;;;22.37;11.40;;;1.60;99.90;;;;;;5028358;28;20215;-58
2022/03/05 04:29:26;;;;;;;24.33;12.43;;;1.60;99.90;;;;;;5026840;28;20664;-56
2022/03/05 04:31:53;;;;;;;27.27;12.80;;;1.70;99.90;;;;;;5023224;28;20652;-57
2022/03/05 04:34:20;;;;;;;25.97;13.23;;;1.60;99.90;;;;;;5027271;28;20290;-55
2022/03/05 04:36:47;;;;;;;25.23;11.77;;;1.50;99.90;;;;;;5026984;28;20282;-57
2022/03/05 04:39:14;;;;;;;23.57;12.43;;;1.50;99.90;;;;;;5028595;28;20204;-57
2022/03/05 04:41:41;;;;;;;27.87;12.93;;;1.40;99.90;;;;;;5021882;28;20649;-57
2022/03/05 04:44:08;;;;;;;26.13;12.30;;;1.40;99.90;;;;;;5026408;28;20225;-58
2022/03/05 04:46:35;;;;;;;28.93;12.70;;;1.40;99.90;;;;;;5026291;28;20220;-56
2022/03/05 04:49:03;;;;;;;25.50;13.30;;;1.30;99.90;;;;;;5026981;28;20203;-55
2022/03/05 04:51:30;;;;;;;27.73;12.70;;;1.40;99.90;;;;;;5030946;28;20662;-56
2022/03/05 04:53:57;;;;;;;26.80;12.90;;;1.40;99.90;;;;;;5015696;28;20677;-55
2022/03/05 04:56:24;;;;;;;25.40;11.97;;;1.40;99.90;;;;;;5034446;28;20524;-58
2022/03/05 04:58:51;;;;;;;26.60;11.77;;;1.30;99.90;;;;;;5032729;28;20696;-56
2022/03/05 05:01:18;;;;;;;24.80;13.70;;;1.20;99.90;;;;;;5031048;28;20777;-56
2022/03/05 05:03:46;;;;;;;23.77;13.10;;;1.30;99.90;;;;;;5034241;28;20224;-56
2022/03/05 05:06:13;;;;;;;26.33;13.80;;;1.30;99.90;;;;;;5032344;28;20295;-55
2022/03/05 05:08:40;;;;;;;25.50;12.97;;;1.40;99.90;;;;;;5036160;28;20199;-56
2022/03/05 05:11:08;;;;;;;29.07;13.00;;;1.30;99.90;;;;;;5031933;28;20247;-57
2022/03/05 05:13:35;;;;;;;27.83;13.70;;;1.30;99.90;;;;;;5021300;28;20321;-57
2022/03/05 05:16:02;;;;;;;25.90;13.80;;;1.30;99.90;;;;;;5034586;28;20309;-56
2022/03/05 05:18:29;;;;;;;25.70;12.90;;;1.30;99.90;;;;;;5032770;28;20534;-57
2022/03/05 05:20:56;;;;;;;27.20;13.13;;;1.30;99.90;;;;;;5032379;28;20207;-57
2022/03/05 05:23:22;;;;;;;21.80;12.17;;;1.30;99.90;;;;;;5034966;28;20231;-57
2022/03/05 05:25:49;;;;;;;27.87;14.30;;;1.30;99.90;;;;;;5032464;28;20280;-57
2022/03/05 05:28:16;;;;;;;26.60;12.50;;;1.20;99.90;;;;;;5030313;28;20216;-58
2022/03/05 05:30:46;;;;;;;28.10;12.10;;;1.20;99.90;;;;;;5031329;28;20361;-57
2022/03/05 05:33:13;;;;;;;32.23;14.20;;;1.10;99.90;;;;;;5029650;28;20197;-56
2022/03/05 05:35:40;;;;;;;25.97;13.20;;;1.10;99.90;;;;;;5033638;28;20561;-56
2022/03/05 05:38:07;;;;;;;25.77;13.63;;;1.10;99.90;;;;;;5033397;28;20204;-59
2022/03/05 05:40:34;;;;;;;29.70;13.10;;;1.00;99.90;;;;;;5030982;28;20296;-56
2022/03/05 05:43:01;;;;;;;24.90;12.63;;;1.00;99.90;;;;;;5021117;28;20211;-57
2022/03/05 05:45:28;;;;;;;29.20;13.67;;;1.00;99.90;;;;;;5035405;28;20521;-57
2022/03/05 05:47:55;;;;;;;28.67;13.57;;;0.90;99.90;;;;;;5030080;28;20219;-57
2022/03/05 05:50:22;;;;;;;25.57;12.73;;;0.80;99.90;;;;;;5027192;28;20286;-56
2022/03/05 05:52:49;;;;;;;25.13;13.33;;;0.80;99.90;;;;;;5031948;28;20288;-56
2022/03/05 05:55:15;;;;;;;27.57;14.17;;;0.60;99.90;;;;;;5030721;28;20685;-57
2022/03/05 05:57:42;;;;;;;25.13;13.33;;;0.50;99.90;;;;;;5033919;28;20212;-57
2022/03/05 06:00:10;;;;;;;29.63;14.10;;;0.50;99.90;;;;;;5024687;28;20546;-57
2022/03/05 06:02:37;;;;;;;29.70;14.40;;;0.40;99.90;;;;;;5033249;28;20547;-57
2022/03/05 06:05:04;;;;;;;32.10;14.53;;;0.30;99.90;;;;;;5029311;28;20668;-58
2022/03/05 06:07:31;;;;;;;32.50;13.43;;;0.30;99.90;;;;;;5026449;28;20219;-57
2022/03/05 06:09:58;;;;;;;32.07;13.73;;;0.20;99.90;;;;;;5027538;28;20697;-57
2022/03/05 06:12:25;;;;;;;32.03;13.93;;;0.10;99.90;;;;;;5029189;28;20332;-59
2022/03/05 06:14:52;;;;;;;30.40;14.50;;;0.10;99.90;;;;;;5032384;28;20667;-58
2022/03/05 06:17:19;;;;;;;28.70;13.07;;;0.00;99.90;;;;;;5029931;28;20730;-57
2022/03/05 06:19:46;;;;;;;32.33;15.37;;;-0.10;99.90;;;;;;5028537;28;20208;-57
2022/03/05 06:22:13;;;;;;;29.80;13.40;;;-0.20;99.90;;;;;;5027479;28;20212;-58
2022/03/05 06:24:40;;;;;;;27.77;13.10;;;0.00;99.90;;;;;;5030844;28;20259;-58
2022/03/05 06:27:07;;;;;;;33.17;14.53;;;0.00;99.90;;;;;;5031828;28;20216;-57
2022/03/05 06:29:34;;;;;;;37.80;13.53;;;0.00;99.90;;;;;;5029883;28;20648;-58
2022/03/05 06:32:02;;;;;;;31.20;13.93;;;0.10;99.90;;;;;;5030963;28;20285;-57
2022/03/05 06:34:29;;;;;;;27.20;12.77;;;-0.10;99.90;;;;;;5026835;28;20207;-58
2022/03/05 06:36:55;;;;;;;28.03;12.27;;;0.00;99.90;;;;;;5028654;28;20298;-58
2022/03/05 06:39:22;;;;;;;32.77;14.50;;;-0.10;99.90;;;;;;5028993;28;20203;-58
2022/03/05 06:41:49;;;;;;;34.13;15.17;;;-0.10;99.90;;;;;;5016795;28;20679;-58
2022/03/05 06:44:16;;;;;;;31.30;15.40;;;-0.10;99.90;;;;;;5029726;28;20230;-58
2022/03/05 06:46:43;;;;;;;33.80;15.30;;;-0.10;99.90;;;;;;5030788;28;20593;-58
2022/03/05 06:49:10;;;;;;;33.87;13.80;;;0.00;99.90;;;;;;5026412;28;20306;-58
2022/03/05 06:51:37;;;;;;;33.07;16.07;;;0.10;99.90;;;;;;5025361;28;20206;-58
2022/03/05 06:54:04;;;;;;;31.07;13.43;;;0.10;99.90;;;;;;5028947;28;20210;-58
2022/03/05 06:56:31;;;;;;;33.33;14.73;;;0.10;99.90;;;;;;5026584;28;20205;-58
2022/03/05 06:58:58;;;;;;;37.77;14.53;;;0.20;99.90;;;;;;5025377;28;22069;-58
2022/03/05 07:01:25;;;;;;;29.00;14.57;;;0.20;99.90;;;;;;5007305;28;20529;-58
2022/03/05 07:03:52;;;;;;;28.83;14.60;;;0.30;99.90;;;;;;5027683;28;20545;-58
2022/03/05 07:06:19;;;;;;;31.50;14.40;;;0.40;99.90;;;;;;5028852;28;20219;-58
2022/03/05 07:08:46;;;;;;;33.27;14.50;;;0.60;99.90;;;;;;5028264;28;20278;-58
2022/03/05 07:11:12;;;;;;;27.57;14.50;;;0.60;99.90;;;;;;5023773;28;20288;-58
2022/03/05 07:13:39;;;;;;;36.17;14.73;;;0.50;99.20;;;;;;5028999;28;20253;-58
2022/03/05 07:16:06;;;;;;;33.83;13.77;;;0.60;99.90;;;;;;5025673;28;20203;-58
2022/03/05 07:18:33;;;;;;;29.83;13.87;;;0.60;99.90;;;;;;5023727;28;20216;-57
2022/03/05 07:21:00;;;;;;;32.73;13.97;;;0.70;99.90;;;;;;5021543;28;20195;-57
2022/03/05 07:23:27;;;;;;;34.47;14.43;;;0.80;34.80;;;;;;5030220;28;20566;-58
2022/03/05 07:25:54;;;;;;;31.60;15.40;;;0.90;8.10;;;;;;5025119;28;20302;-58
2022/03/05 07:28:21;;;;;;;33.50;14.60;;;1.10;99.90;;;;;;5029196;28;20209;-58
2022/03/05 07:30:48;;;;;;;30.57;14.87;;;1.10;1.00;;;;;;5023134;28;20736;-58
2022/03/05 07:33:15;;;;;;;33.17;15.27;;;1.00;1.00;;;;;;5028812;28;20255;-58
2022/03/05 07:35:42;;;;;;;27.40;13.73;;;1.00;26.10;;;;;;5014004;28;20203;-58
2022/03/05 07:38:09;;;;;;;28.90;15.03;;;1.10;1.00;;;;;;5025278;28;20291;-57
2022/03/05 07:40:36;;;;;;;31.07;15.83;;;1.30;1.00;;;;;;5025231;28;20667;-56
2022/03/05 07:43:03;;;;;;;30.10;14.97;;;1.50;1.00;;;;;;5028995;28;20896;-56
2022/03/05 07:45:29;;;;;;;35.57;14.37;;;1.70;1.00;;;;;;5024692;28;20204;-55
2022/03/05 07:47:56;;;;;;;34.83;15.23;;;1.90;1.00;;;;;;5023824;28;20232;-56
2022/03/05 07:50:23;;;;;;;33.03;14.37;;;2.10;1.00;;;;;;5022348;28;20875;-56
2022/03/05 07:52:50;;;;;;;31.90;15.03;;;2.10;1.00;;;;;;5025138;28;20629;-56
2022/03/05 07:55:17;;;;;;;32.47;15.00;;;2.20;1.00;;;;;;5011330;28;20272;-56
2022/03/05 07:57:44;;;;;;;35.10;15.60;;;2.10;1.00;;;;;;5026422;28;20212;-58
2022/03/05 08:00:11;;;;;;;33.77;14.77;;;2.40;1.00;;;;;;5022917;28;20236;-59
2022/03/05 08:02:53;;;;;;;36.07;16.30;;;2.50;1.00;;;;;;5026082;28;20205;-56
2022/03/05 08:05:20;;;;;;;30.60;13.73;;;2.60;1.00;;;;;;5025279;28;20205;-56
2022/03/05 08:07:47;;;;;;;31.33;15.20;;;2.80;1.00;;;;;;5031059;28;20213;-56
2022/03/05 08:10:15;;;;;;;33.33;14.60;;;3.20;1.00;;;;;;5025478;28;20274;-56
2022/03/05 08:12:42;;;;;;;31.57;14.93;;;3.50;99.90;;;;;;5028865;28;20260;-57
2022/03/05 08:15:10;;;;;;;31.13;14.07;;;3.90;99.90;;;;;;5030422;28;20205;-57
2022/03/05 08:17:47;;;;;;;33.47;14.40;;;4.10;99.90;;;;;;5026102;28;20201;-57
2022/03/05 08:20:14;;;;;;;31.33;15.70;;;4.00;1.00;;;;;;5024099;28;20227;-57
2022/03/05 08:22:41;;;;;;;34.00;16.23;;;4.10;99.90;;;;;;5022575;28;20208;-57
2022/03/05 08:25:08;;;;;;;29.57;14.13;;;4.30;1.00;;;;;;5027340;28;20208;-56
2022/03/05 08:27:34;;;;;;;29.50;15.83;;;4.30;1.00;;;;;;5020339;28;20311;-57
2022/03/05 08:30:03;;;;;;;31.83;14.53;;;4.50;1.00;;;;;;5023140;28;20201;-56
2022/03/05 08:32:30;;;;;;;31.20;15.43;;;5.00;1.00;;;;;;5029420;28;20604;-57
2022/03/05 08:34:56;;;;;;;32.60;15.63;;;4.90;99.90;;;;;;5028127;28;20287;-57
2022/03/05 08:37:23;;;;;;;31.10;15.17;;;5.20;1.00;;;;;;5028679;28;20243;-57
2022/03/05 08:39:50;;;;;;;29.17;15.37;;;5.40;1.00;;;;;;5029251;28;20263;-57
2022/03/05 08:42:17;;;;;;;30.83;15.10;;;5.40;99.90;;;;;;5032347;28;20235;-59
2022/03/05 08:44:44;;;;;;;26.87;14.57;;;5.50;1.00;;;;;;5031519;28;20209;-57
2022/03/05 08:47:11;;;;;;;34.03;15.93;;;5.40;99.90;;;;;;5028050;28;20216;-57
2022/03/05 08:49:38;;;;;;;32.13;14.23;;;6.00;1.00;;;;;;5031774;28;20769;-57
2022/03/05 08:52:06;;;;;;;36.83;15.90;;;6.10;99.90;;;;;;5022364;28;20971;-60
2022/03/05 08:54:33;;;;;;;32.33;15.60;;;6.30;99.90;;;;;;5029046;28;20632;-56
2022/03/05 08:57:00;;;;;;;34.17;16.30;;;6.40;98.40;;;;;;5036004;28;20230;-57
2022/03/05 08:59:27;;;;;;;35.83;17.50;;;6.70;99.90;;;;;;5031714;28;20206;-57
2022/03/05 09:01:54;;;;;;;30.77;15.33;;;6.60;1.00;;;;;;5025641;28;20402;-57
2022/03/05 09:04:22;;;;;;;30.03;15.77;;;6.60;1.00;;;;;;5020485;28;20215;-56
2022/03/05 09:06:49;;;;;;;33.73;15.87;;;6.90;1.00;;;;;;5024446;28;20603;-57
2022/03/05 09:09:16;;;;;;;30.70;16.00;;;7.50;1.00;;;;;;5027117;28;20220;-56
2022/03/05 09:11:43;;;;;;;31.33;16.00;;;7.80;99.90;;;;;;5027448;28;20206;-56
2022/03/05 09:14:10;;;;;;;32.87;16.80;;;8.00;91.90;;;;;;5005204;28;20224;-56
2022/03/05 09:16:38;;;;;;;33.43;17.13;;;8.00;1.00;;;;;;5015443;28;20199;-57
2022/03/05 09:19:06;;;;;;;28.63;16.10;;;8.00;99.90;;;;;;5025588;28;20217;-57
2022/03/05 09:21:36;;;;;;;30.90;16.07;;;8.20;1.00;;;;;;5025126;28;20932;-57
2022/03/05 09:24:05;;;;;;;32.87;16.70;;;8.30;99.90;;;;;;5028794;28;20264;-57
2022/03/05 09:26:33;;;;;;;34.03;17.17;;;8.70;1.00;;;;;;5025108;28;20295;-57
2022/03/05 09:29:00;;;;;;;32.20;16.27;;;8.80;1.00;;;;;;5030589;28;20209;-57
2022/03/05 09:31:27;;;;;;;30.50;17.20;;;8.70;1.00;;;;;;5024336;28;20197;-58
2022/03/05 09:33:54;;;;;;;30.73;15.93;;;8.40;1.00;;;;;;5027762;28;20633;-56
2022/03/05 09:36:21;;;;;;;30.90;16.70;;;8.60;1.00;;;;;;5029705;28;20508;-58
2022/03/05 09:38:48;;;;;;;35.73;16.73;;;9.20;99.90;;;;;;5030229;28;20260;-58
2022/03/05 09:41:15;;;;;;;30.37;16.13;;;9.80;1.00;;;;;;5024205;28;20236;-58
2022/03/05 09:43:43;;;;;;;29.57;16.47;;;10.20;32.20;;;;;;5029042;28;20567;-58
2022/03/05 09:46:10;;;;;;;32.70;17.90;;;10.00;1.00;;;;;;5025192;28;20527;-56
2022/03/05 09:48:39;;;;;;;27.23;16.17;;;10.50;99.90;;;;;;5024078;28;20216;-56
2022/03/05 09:51:06;;;;;;;31.77;16.93;;;10.50;99.90;;;;;;5016743;28;20201;-56
2022/03/05 09:53:33;;;;;;;28.43;16.70;;;9.80;94.50;;;;;;5024055;28;20330;-56
2022/03/05 09:56:00;;;;;;;31.57;17.20;;;10.40;99.90;;;;;;5027616;28;20259;-57
2022/03/05 09:58:50;;;;;;;32.43;17.07;;;10.40;99.90;;;;;;5024456;28;20231;-57
2022/03/05 10:01:17;;;;;;;29.67;17.30;;;10.30;99.90;;;;;;5027902;28;20231;-58
2022/03/05 10:03:52;;;;;;;31.67;17.87;;;9.40;99.90;;;;;;5014784;28;20214;-57
2022/03/05 10:06:22;;;;;;;28.77;15.73;;;9.80;99.90;;;;;;5025220;28;20686;-57
2022/03/05 10:08:51;;;;;;;33.77;17.27;;;9.90;99.90;;;;;;5017541;28;20259;-57
2022/03/05 10:11:19;;;;;;;31.93;17.37;;;9.90;99.90;;;;;;5023059;28;20604;-57
2022/03/05 10:13:47;;;;;;;30.00;17.10;;;10.00;99.90;;;;;;5026697;28;20236;-58
2022/03/05 10:16:26;;;;;;;29.00;16.27;;;10.50;99.90;;;;;;5023609;28;21071;-58
2022/03/05 10:18:54;;;;;;;32.13;17.30;;;10.60;99.90;;;;;;5013809;28;20220;-59
2022/03/05 10:21:31;;;;;;;28.67;17.60;;;10.10;99.90;;;;;;5020877;28;20247;-59
2022/03/05 10:24:09;;;;;;;31.83;18.03;;;10.40;99.90;;;;;;5021209;28;20589;-59
2022/03/05 10:26:56;;;;;;;34.57;17.60;;;9.80;99.90;;;;;;5023367;28;20283;-58
2022/03/05 10:29:26;;;;;;;34.80;16.93;;;10.10;99.90;;;;;;5024892;28;20271;-58
2022/03/05 10:31:57;;;;;;;29.87;17.07;;;10.30;99.90;;;;;;5015079;28;20711;-58
2022/03/05 10:34:24;;;;;;;30.73;15.70;;;10.70;99.90;;;;;;5026605;28;20206;-58
2022/03/05 10:37:02;;;;;;;31.87;16.27;;;10.30;99.90;;;;;;5022278;28;20211;-58
2022/03/05 10:39:29;;;;;;;31.77;16.77;;;9.90;99.90;;;;;;5026407;28;20239;-58
2022/03/05 10:41:56;;;;;;;35.33;17.13;;;10.20;99.90;;;;;;5031795;28;20533;-57
2022/03/05 10:44:23;;;;;;;32.83;16.50;;;10.20;99.90;;;;;;5024745;28;20264;-58
2022/03/05 10:47:00;;;;;;;31.30;17.07;;;10.20;99.90;;;;;;5022873;28;20524;-58
2022/03/05 10:49:36;;;;;;;31.73;16.60;;;10.40;99.90;;;;;;5016069;28;20197;-58
2022/03/05 10:52:03;;;;;;;25.73;15.23;;;9.80;99.90;;;;;;5025839;28;20205;-58
2022/03/05 10:54:32;;;;;;;29.60;17.13;;;10.00;99.90;;;;;;5023530;28;20200;-58
2022/03/05 10:57:13;;;;;;;31.57;17.10;;;9.90;99.90;;;;;;5028781;28;20206;-58
2022/03/05 10:59:42;;;;;;;31.40;17.10;;;9.90;99.90;;;;;;5018530;28;20638;-58
2022/03/05 11:02:14;;;;;;;28.53;16.77;;;10.00;99.90;;;;;;5025700;28;20218;-58
2022/03/05 11:04:43;;;;;;;29.13;16.27;;;10.50;99.90;;;;;;5021202;28;20212;-58
2022/03/05 11:07:11;;;;;;;32.53;17.20;;;10.70;99.90;;;;;;5029778;28;20697;-56
2022/03/05 11:09:40;;;;;;;31.43;16.60;;;10.70;99.90;;;;;;5023537;28;20225;-57
2022/03/05 11:12:08;;;;;;;30.73;16.97;;;10.80;99.90;;;;;;5029771;28;20852;-57
2022/03/05 11:14:36;;;;;;;28.90;16.53;;;10.80;99.90;;;;;;5018083;28;20205;-57
2022/03/05 11:17:04;;;;;;;31.03;17.37;;;11.00;99.90;;;;;;5010494;28;20208;-58
2022/03/05 11:19:33;;;;;;;31.37;18.07;;;10.50;99.90;;;;;;5019023;28;20200;-56
2022/03/05 11:22:00;;;;;;;31.33;17.60;;;10.60;99.90;;;;;;5020729;28;20268;-57
2022/03/05 11:24:27;;;;;;;30.43;17.97;;;10.80;99.90;;;;;;5024170;28;20219;-57
2022/03/05 11:26:55;;;;;;;34.03;20.10;;;11.20;99.90;;;;;;5023838;28;20582;-57
2022/03/05 11:29:29;;;;;;;34.37;21.10;;;11.40;99.90;;;;;;5017666;28;20247;-57
2022/03/05 11:32:13;;;;;;;38.63;22.63;;;11.50;99.90;;;;;;5020716;28;20661;-57
2022/03/05 11:34:45;;;;;;;39.73;23.70;;;11.40;99.90;;;;;;5023032;28;20207;-57
2022/03/05 11:37:33;;;;;;;35.20;20.80;;;11.50;99.90;;;;;;5021136;28;20652;-57
2022/03/05 11:40:05;;;;;;;31.07;19.53;;;11.40;99.90;;;;;;5022506;28;20247;-56
2022/03/05 11:42:37;;;;;;;30.87;18.33;;;11.40;99.90;;;;;;5022549;28;20207;-57
2022/03/05 11:45:26;;;;;;;36.93;19.77;;;11.70;99.90;;;;;;5019552;28;20293;-57
2022/03/05 11:48:14;;;;;;;34.30;19.60;;;11.80;99.90;;;;;;5026515;28;20278;-58
2022/03/05 11:50:49;;;;;;;27.70;17.70;;;12.00;99.90;;;;;;5023764;28;20202;-57
2022/03/05 11:53:17;;;;;;;29.03;16.47;;;11.50;99.90;;;;;;5027190;28;20293;-57
2022/03/05 11:55:45;;;;;;;29.03;17.23;;;11.90;99.90;;;;;;5028869;28;20227;-57
2022/03/05 11:58:12;;;;;;;34.13;19.90;;;12.10;99.90;;;;;;5029389;28;20297;-58
2022/03/05 12:00:49;;;;;;;28.73;17.40;;;12.20;99.90;;;;;;5023985;28;20650;-58
2022/03/05 12:03:37;;;;;;;49.33;18.80;;;12.90;99.90;;;;;;5008498;28;20222;-57
2022/03/05 12:06:05;;;;;;;28.20;16.90;;;13.30;99.90;;;;;;5009709;28;20216;-57
2022/03/05 12:08:35;;;;;;;33.70;18.97;;;13.50;99.90;;;;;;5018876;28;20675;-56
2022/03/05 12:11:14;;;;;;;30.53;18.17;;;13.30;99.90;;;;;;5016201;28;20253;-56
2022/03/05 12:13:46;;;;;;;29.37;19.03;;;13.00;99.90;;;;;;5016112;28;20709;-57
2022/03/05 12:16:25;;;;;;;27.70;16.93;;;13.50;99.90;;;;;;5018423;28;20295;-57
2022/03/05 12:18:56;;;;;;;25.47;16.03;;;13.80;99.90;;;;;;5016658;28;20649;-57
2022/03/05 12:21:27;;;;;;;34.17;18.80;;;13.70;99.90;;;;;;5016816;28;20205;-57
2022/03/05 12:24:00;;;;;;;27.47;17.17;;;14.10;99.90;;;;;;5019522;28;20230;-57
2022/03/05 12:26:45;;;;;;;29.70;17.83;;;14.10;99.90;;;;;;5019112;28;20665;-58
2022/03/05 12:29:12;;;;;;;29.53;17.13;;;13.90;99.90;;;;;;5023169;28;20371;-57
2022/03/05 12:31:48;;;;;;;27.23;17.93;;;14.00;99.90;;;;;;5012615;28;22488;-57
2022/03/05 12:34:24;;;;;;;24.03;16.10;;;14.00;99.90;;;;;;5019337;28;20608;-57
2022/03/05 12:36:51;;;;;;;30.23;18.40;;;14.80;99.90;;;;;;5019115;28;22232;-57
2022/03/05 12:39:23;;;;;;;33.10;18.73;;;14.50;99.90;;;;;;5019029;28;20209;-58
2022/03/05 12:41:50;;;;;;;27.00;17.83;;;14.50;99.90;;;;;;5015098;28;20630;-57
2022/03/05 12:44:17;;;;;;;31.27;18.47;;;14.50;99.90;;;;;;5018131;28;20208;-57